Time;durP1;ratioP1;P1;durP2;ratioP2;P2;SDS_P1;SDS_P2;PMS_P1;PMS_P2;Temp;Humidity;BMP_temperature;BMP_pressure;BME280_temperature;BME280_humidity;BME280_pressure;Samples;Min_cycle;Max_cycle;Signal;HPM_P1;HPM_P2
2022/12/26 00:01:13;;;;;;;4.20;3.20;;;12.70;65.20;;;;;;4909790;29;20452;-85
2022/12/26 00:03:40;;;;;;;5.70;3.70;;;12.60;69.00;;;;;;4917790;29;20458;-85
2022/12/26 00:06:12;;;;;;;3.73;3.40;;;12.80;68.90;;;;;;4908591;29;21009;-85
2022/12/26 00:08:39;;;;;;;3.00;2.63;;;13.00;68.50;;;;;;4918597;29;20448;-85
2022/12/26 00:11:06;;;;;;;3.67;3.03;;;13.10;68.30;;;;;;4907392;29;20467;-84
2022/12/26 00:13:34;;;;;;;3.90;3.10;;;13.20;67.70;;;;;;4901693;29;20860;-85
2022/12/26 00:16:06;;;;;;;4.20;3.20;;;13.40;67.10;;;;;;4920215;29;20476;-85
2022/12/26 00:18:33;;;;;;;3.10;2.60;;;13.70;66.00;;;;;;4894547;29;20973;-84
2022/12/26 00:21:02;;;;;;;5.20;2.97;;;13.80;65.70;;;;;;4892806;29;21229;-87
2022/12/26 00:23:30;;;;;;;4.00;3.53;;;13.70;65.60;;;;;;4885475;29;20972;-85
2022/12/26 00:26:03;;;;;;;2.83;2.47;;;13.70;65.60;;;;;;4878991;29;20484;-85
2022/12/26 00:28:29;;;;;;;3.17;2.87;;;13.70;65.60;;;;;;4910610;29;20443;-85
2022/12/26 00:30:58;;;;;;;4.57;2.50;;;13.70;65.60;;;;;;4894196;29;20511;-85
2022/12/26 00:33:25;;;;;;;4.10;2.67;;;13.70;65.70;;;;;;4887475;29;20451;-83
2022/12/26 00:35:52;;;;;;;2.87;2.67;;;13.70;65.40;;;;;;4923351;29;20478;-85
2022/12/26 00:38:19;;;;;;;4.03;2.83;;;13.80;64.90;;;;;;4894214;29;20458;-85
2022/12/26 00:40:47;;;;;;;3.73;2.70;;;13.90;64.60;;;;;;4894535;29;20447;-84
2022/12/26 00:43:14;;;;;;;3.87;2.37;;;13.90;64.70;;;;;;4892765;29;20448;-85
2022/12/26 00:45:45;;;;;;;3.80;2.87;;;14.10;64.00;;;;;;4914469;29;20480;-85
2022/12/26 00:48:13;;;;;;;4.00;2.80;;;13.90;64.80;;;;;;4906055;29;20459;-83
2022/12/26 00:50:40;;;;;;;2.43;2.13;;;13.80;65.00;;;;;;4895379;29;20472;-86
2022/12/26 00:53:07;;;;;;;3.90;2.60;;;13.90;64.30;;;;;;4916608;29;20474;-84
2022/12/26 00:55:34;;;;;;;4.03;2.77;;;14.00;64.60;;;;;;4895025;29;20475;-82
2022/12/26 00:58:01;;;;;;;3.10;2.40;;;13.80;64.80;;;;;;4888719;29;20496;-86
2022/12/26 01:00:28;;;;;;;3.10;2.47;;;13.90;64.50;;;;;;4917207;29;20461;-85
2022/12/26 01:02:54;;;;;;;3.00;2.50;;;14.20;64.00;;;;;;4909600;29;20501;-85
2022/12/26 01:05:23;;;;;;;3.97;2.30;;;14.10;63.90;;;;;;4919236;29;20893;-88
2022/12/26 01:07:50;;;;;;;4.60;2.30;;;14.30;63.50;;;;;;4891596;29;20464;-86
2022/12/26 01:10:17;;;;;;;2.67;2.47;;;14.00;64.10;;;;;;4924247;29;20857;-87
2022/12/26 01:12:44;;;;;;;4.27;2.50;;;14.10;64.60;;;;;;4889147;29;20447;-85
2022/12/26 01:15:10;;;;;;;3.80;2.57;;;14.20;63.50;;;;;;4914660;29;20985;-84
2022/12/26 01:17:37;;;;;;;7.30;3.13;;;14.20;63.90;;;;;;4907378;29;20451;-85
2022/12/26 01:20:05;;;;;;;2.90;2.40;;;14.30;63.00;;;;;;4890524;29;20833;-84
2022/12/26 01:22:35;;;;;;;3.30;3.00;;;14.40;62.80;;;;;;4932642;28;20966;-86
2022/12/26 01:25:02;;;;;;;17.70;9.20;;;14.50;62.60;;;;;;4895483;29;20475;-85
2022/12/26 01:27:29;;;;;;;4.73;3.07;;;14.60;62.20;;;;;;4903649;29;20460;-85
2022/12/26 01:29:56;;;;;;;9.50;4.87;;;14.70;61.80;;;;;;4906827;29;20483;-85
2022/12/26 01:32:24;;;;;;;13.10;8.73;;;14.60;62.00;;;;;;4893502;29;20558;-84
2022/12/26 01:34:54;;;;;;;15.87;9.47;;;14.70;61.80;;;;;;4919102;29;20482;-85
2022/12/26 01:37:22;;;;;;;8.90;4.67;;;14.90;61.40;;;;;;4917790;29;20457;-84
2022/12/26 01:39:51;;;;;;;6.90;4.07;;;14.80;61.20;;;;;;4871251;29;20455;-84
2022/12/26 01:42:21;;;;;;;5.17;4.13;;;14.60;61.80;;;;;;4919918;29;20933;-85
2022/12/26 01:45:00;;;;;;;4.60;3.50;;;14.60;61.70;;;;;;4880143;29;20864;-84
2022/12/26 01:47:39;;;;;;;4.37;2.80;;;14.70;61.00;;;;;;4907202;29;20458;-85
2022/12/26 01:50:17;;;;;;;3.20;2.63;;;14.80;60.90;;;;;;4900853;29;20478;-86
2022/12/26 01:52:46;;;;;;;4.73;3.50;;;14.80;60.80;;;;;;4891500;29;20458;-84
2022/12/26 01:55:18;;;;;;;3.37;2.90;;;14.70;60.80;;;;;;4902381;29;20479;-86
2022/12/26 01:57:50;;;;;;;3.23;2.93;;;14.70;60.80;;;;;;4875261;29;20463;-85
2022/12/26 02:00:17;;;;;;;3.47;3.07;;;14.30;62.40;;;;;;4916297;29;20510;-84
2022/12/26 02:05:35;;;;;;;6.97;2.90;;;14.40;62.50;;;;;;4870822;29;20614;-85
2022/12/26 02:08:06;;;;;;;3.67;2.60;;;14.20;62.90;;;;;;4902126;29;20452;-82
2022/12/26 02:10:38;;;;;;;4.70;3.13;;;14.20;62.60;;;;;;4878151;29;20471;-84
2022/12/26 02:13:06;;;;;;;5.23;3.07;;;14.30;62.70;;;;;;4890304;29;20450;-86
2022/12/26 02:15:34;;;;;;;3.73;3.40;;;14.40;61.80;;;;;;4906154;29;21016;-85
2022/12/26 02:18:00;;;;;;;3.20;2.93;;;14.50;61.90;;;;;;4888340;29;20459;-84
2022/12/26 02:20:31;;;;;;;3.83;3.47;;;14.60;62.40;;;;;;4904120;29;20838;-86
2022/12/26 02:23:36;;;;;;;3.67;3.00;;;14.70;61.00;;;;;;4902336;29;20488;-85
2022/12/26 02:26:39;;;;;;;3.20;2.90;;;14.60;61.40;;;;;;4877307;29;20479;-85
2022/12/26 02:29:48;;;;;;;3.80;3.07;;;14.60;61.40;;;;;;4900713;29;20515;-84
2022/12/26 02:32:22;;;;;;;5.33;2.97;;;14.50;61.40;;;;;;4906530;29;20451;-85
2022/12/26 02:34:57;;;;;;;5.63;3.23;;;14.50;61.60;;;;;;4910586;29;20454;-85
2022/12/26 02:37:40;;;;;;;3.80;3.10;;;14.60;61.60;;;;;;4881653;29;20454;-85
2022/12/26 02:40:25;;;;;;;5.17;3.73;;;14.40;61.90;;;;;;4929226;29;20435;-82
2022/12/26 02:42:58;;;;;;;5.10;3.40;;;14.50;61.50;;;;;;4937909;29;20450;-84
2022/12/26 02:48:30;;;;;;;7.13;5.70;;;14.50;61.40;;;;;;4931312;29;20492;-85
2022/12/26 03:13:53;;;;;;;8.20;5.00;;;14.40;62.20;;;;;;4893761;29;20502;-84
2022/12/26 03:19:10;;;;;;;5.93;3.20;;;14.30;62.30;;;;;;4883567;29;20484;-86
2022/12/26 03:21:42;;;;;;;4.53;2.70;;;14.30;62.60;;;;;;4913690;29;20446;-85
2022/12/26 03:24:12;;;;;;;5.07;3.07;;;14.50;62.30;;;;;;4920463;29;20455;-85
2022/12/26 03:26:46;;;;;;;3.40;2.80;;;14.70;61.70;;;;;;4936168;29;20463;-85
2022/12/26 03:32:03;;;;;;;5.33;3.87;;;14.50;61.80;;;;;;4891833;29;20448;-84
2022/12/26 03:34:30;;;;;;;5.70;3.10;;;14.70;61.30;;;;;;4928273;29;20467;-84
2022/12/26 03:37:41;;;;;;;4.60;2.93;;;14.70;61.30;;;;;;4912335;29;20453;-85
2022/12/26 04:20:29;;;;;;;4.30;3.53;;;14.50;62.60;;;;;;4879703;29;20451;-85
2022/12/26 04:45:28;;;;;;;3.10;2.40;;;14.30;62.50;;;;;;4898773;29;20476;-85
2022/12/26 04:50:49;;;;;;;2.97;2.67;;;14.20;62.70;;;;;;4905604;29;20474;-84
2022/12/26 04:53:16;;;;;;;4.07;2.53;;;14.40;62.50;;;;;;4920273;29;20506;-86
2022/12/26 04:55:43;;;;;;;5.00;2.43;;;14.20;62.60;;;;;;4909692;29;20503;-85
2022/12/26 04:58:10;;;;;;;3.90;2.60;;;14.20;63.10;;;;;;4906151;29;20459;-86
2022/12/26 05:00:39;;;;;;;4.23;3.27;;;14.00;63.50;;;;;;4880637;29;20451;-85
2022/12/26 05:11:33;;;;;;;6.73;4.10;;;14.50;62.10;;;;;;4903037;29;20471;-85
2022/12/26 05:14:01;;;;;;;7.10;4.23;;;14.30;62.20;;;;;;4904352;29;20460;-85
2022/12/26 05:30:21;;;;;;;4.77;3.17;;;14.30;63.00;;;;;;4887039;29;20579;-85
2022/12/26 05:35:35;;;;;;;2.67;2.47;;;14.30;62.80;;;;;;4903849;29;20487;-85
2022/12/26 05:38:02;;;;;;;3.50;3.20;;;14.30;63.10;;;;;;4905183;29;20971;-86
2022/12/26 05:40:29;;;;;;;4.23;2.90;;;14.30;62.80;;;;;;4888677;29;20444;-84
2022/12/26 05:42:56;;;;;;;5.93;3.10;;;14.30;63.00;;;;;;4890839;29;20452;-85
2022/12/26 05:45:23;;;;;;;5.90;3.07;;;14.40;63.10;;;;;;4907275;29;20479;-85
2022/12/26 05:47:57;;;;;;;3.43;3.00;;;14.30;63.00;;;;;;4910794;29;20447;-86
2022/12/26 05:50:24;;;;;;;5.33;3.03;;;14.20;62.70;;;;;;4903731;29;20475;-85
2022/12/26 05:52:51;;;;;;;3.10;2.70;;;14.20;62.90;;;;;;4883255;29;20447;-85
2022/12/26 05:55:19;;;;;;;6.73;2.63;;;14.30;62.80;;;;;;4880389;29;20511;-87
2022/12/26 05:57:45;;;;;;;2.93;2.50;;;14.40;63.10;;;;;;4890590;29;20439;-85
2022/12/26 06:00:14;;;;;;;3.80;3.03;;;14.50;62.50;;;;;;4923447;29;20435;-85
2022/12/26 06:02:41;;;;;;;3.47;3.17;;;14.50;62.70;;;;;;4881358;29;20451;-85
2022/12/26 06:05:10;;;;;;;5.47;3.43;;;14.70;61.80;;;;;;4890366;29;20490;-85
2022/12/26 06:07:37;;;;;;;3.57;3.03;;;14.70;61.60;;;;;;4941684;28;20477;-85
2022/12/26 06:10:05;;;;;;;4.57;3.23;;;14.70;61.40;;;;;;4896393;29;20517;-84
2022/12/26 06:12:33;;;;;;;2.90;2.43;;;14.70;61.60;;;;;;4908790;29;20443;-85
2022/12/26 06:15:00;;;;;;;4.90;2.40;;;15.00;60.90;;;;;;4912861;29;20475;-87
2022/12/26 06:17:26;;;;;;;6.67;3.20;;;15.10;60.60;;;;;;4891440;29;20435;-84
2022/12/26 06:19:53;;;;;;;5.57;2.80;;;15.10;60.20;;;;;;4924356;29;20459;-86
2022/12/26 06:22:22;;;;;;;3.67;2.50;;;15.10;60.50;;;;;;4912171;29;20539;-84
2022/12/26 06:24:49;;;;;;;4.40;2.40;;;14.80;61.00;;;;;;4894426;29;20449;-84
2022/12/26 06:27:16;;;;;;;3.90;2.70;;;14.70;61.00;;;;;;4923009;29;20459;-85
2022/12/26 06:29:43;;;;;;;5.97;2.93;;;14.90;61.40;;;;;;4898090;29;20451;-85
2022/12/26 06:32:10;;;;;;;3.77;2.63;;;15.00;60.80;;;;;;4936264;29;20555;-85
2022/12/26 06:34:37;;;;;;;4.80;3.30;;;14.90;61.00;;;;;;4925288;29;20451;-84
2022/12/26 06:37:04;;;;;;;2.63;2.40;;;14.70;61.60;;;;;;4894869;29;20878;-85
2022/12/26 06:39:32;;;;;;;3.20;2.93;;;14.80;61.20;;;;;;4908358;29;20868;-86
2022/12/26 06:41:59;;;;;;;4.57;2.30;;;14.80;61.40;;;;;;4889663;29;20466;-85
2022/12/26 06:44:26;;;;;;;4.60;3.17;;;14.80;61.40;;;;;;4897914;29;20462;-85
2022/12/26 06:46:53;;;;;;;4.67;3.37;;;14.80;61.40;;;;;;4936934;29;20476;-86
2022/12/26 06:49:20;;;;;;;7.60;4.30;;;14.90;61.20;;;;;;4903329;29;20809;-84
2022/12/26 06:51:47;;;;;;;3.63;3.30;;;14.70;61.40;;;;;;4913989;29;20467;-85
2022/12/26 06:54:14;;;;;;;3.30;3.00;;;14.70;61.90;;;;;;4892861;29;20474;-85
2022/12/26 06:56:42;;;;;;;4.90;3.17;;;14.80;61.70;;;;;;4922280;29;20473;-85
2022/12/26 06:59:11;;;;;;;5.53;3.90;;;14.70;62.10;;;;;;4906947;29;20448;-86
2022/12/26 07:01:38;;;;;;;4.40;3.27;;;14.90;61.90;;;;;;4926538;29;21024;-85
2022/12/26 07:04:05;;;;;;;4.27;3.03;;;14.80;61.90;;;;;;4906474;29;20459;-85
2022/12/26 07:06:34;;;;;;;3.97;3.27;;;14.70;62.50;;;;;;4899251;29;20494;-85
2022/12/26 07:09:03;;;;;;;3.33;2.93;;;14.70;62.60;;;;;;4882288;29;20456;-86
2022/12/26 07:11:31;;;;;;;4.00;2.97;;;14.80;62.00;;;;;;4898432;29;20514;-85
2022/12/26 07:14:00;;;;;;;4.67;2.80;;;14.70;62.30;;;;;;4899035;29;20455;-85
2022/12/26 07:16:27;;;;;;;5.83;4.47;;;14.70;61.90;;;;;;4881075;29;20562;-85
2022/12/26 07:18:56;;;;;;;72.53;58.83;;;14.70;62.40;;;;;;4903127;29;20471;-85
2022/12/26 07:21:25;;;;;;;4.60;3.70;;;14.70;62.50;;;;;;4893268;29;20456;-85
2022/12/26 07:23:54;;;;;;;2.87;2.67;;;14.80;62.60;;;;;;4908939;29;20953;-85
2022/12/26 07:26:21;;;;;;;190.30;112.97;;;15.00;62.30;;;;;;4935911;28;20485;-84
2022/12/26 07:28:48;;;;;;;4.60;4.20;;;14.90;61.60;;;;;;4916428;29;20483;-85
2022/12/26 07:31:18;;;;;;;3.17;2.70;;;14.90;62.20;;;;;;4913502;29;20562;-86
2022/12/26 07:33:47;;;;;;;2.60;2.40;;;15.10;62.60;;;;;;4924727;29;20473;-85
2022/12/26 07:36:14;;;;;;;3.63;3.30;;;15.20;61.70;;;;;;4921415;29;20482;-84
2022/12/26 07:38:41;;;;;;;9.87;7.40;;;15.20;61.60;;;;;;4908145;29;20543;-83
2022/12/26 07:43:49;;;;;;;4.77;2.97;;;15.20;62.90;;;;;;4883031;29;20447;-87
2022/12/26 07:46:17;;;;;;;3.00;2.33;;;15.10;62.70;;;;;;4911848;29;20480;-84
2022/12/26 07:48:44;;;;;;;4.90;2.47;;;15.00;63.40;;;;;;4903941;29;20462;-86
2022/12/26 07:51:11;;;;;;;7.40;3.67;;;15.10;63.90;;;;;;4933696;28;20486;-88
2022/12/26 07:53:38;;;;;;;3.80;3.40;;;15.20;63.50;;;;;;4896159;29;20759;-83
2022/12/26 07:56:06;;;;;;;6.20;3.27;;;15.30;63.30;;;;;;4904093;29;20571;-85
2022/12/26 07:58:33;;;;;;;3.80;3.50;;;15.30;63.90;;;;;;4923335;29;20894;-83
2022/12/26 08:01:01;;;;;;;4.67;3.50;;;15.20;64.50;;;;;;4886278;29;20834;-84
2022/12/26 08:03:30;;;;;;;4.37;3.23;;;15.10;64.80;;;;;;4919816;29;20538;-85
2022/12/26 08:05:57;;;;;;;6.87;4.70;;;15.20;64.50;;;;;;4889321;29;20985;-85
2022/12/26 08:08:24;;;;;;;4.90;2.90;;;15.30;64.90;;;;;;4888327;29;20447;-86
2022/12/26 08:10:59;;;;;;;4.30;3.10;;;15.20;65.00;;;;;;4902666;29;20482;-83
2022/12/26 08:13:25;;;;;;;3.13;2.67;;;15.00;65.30;;;;;;4908072;29;20461;-84
2022/12/26 08:15:52;;;;;;;4.03;3.30;;;15.00;65.70;;;;;;4932328;29;21036;-84
2022/12/26 08:18:20;;;;;;;3.40;2.50;;;14.90;66.40;;;;;;4934570;29;20470;-85
2022/12/26 08:20:48;;;;;;;3.90;3.10;;;14.80;66.50;;;;;;4919840;29;20463;-84
2022/12/26 08:23:15;;;;;;;3.13;2.80;;;14.80;67.10;;;;;;4909112;29;20464;-85
2022/12/26 08:25:43;;;;;;;3.60;3.00;;;14.90;66.70;;;;;;4890522;29;20471;-84
2022/12/26 08:28:10;;;;;;;4.97;4.00;;;15.10;66.40;;;;;;4878930;29;20459;-85
2022/12/26 08:30:39;;;;;;;7.53;5.07;;;14.90;66.70;;;;;;4878387;29;20460;-85
2022/12/26 08:33:07;;;;;;;4.70;3.53;;;15.00;66.80;;;;;;4902830;29;21159;-86
2022/12/26 08:35:34;;;;;;;5.50;3.90;;;15.20;66.10;;;;;;4917650;29;21209;-84
2022/12/26 08:38:03;;;;;;;5.53;2.50;;;15.30;65.70;;;;;;4913517;29;20475;-85
2022/12/26 08:40:30;;;;;;;4.67;3.40;;;15.10;66.40;;;;;;4931672;29;20526;-84
2022/12/26 08:42:57;;;;;;;3.60;3.30;;;15.20;66.40;;;;;;4921075;29;20463;-87
2022/12/26 08:45:24;;;;;;;6.47;4.40;;;15.30;66.20;;;;;;4918965;29;20474;-84
2022/12/26 08:47:53;;;;;;;4.70;3.47;;;15.30;65.80;;;;;;4901680;29;20511;-85
2022/12/26 08:50:20;;;;;;;4.30;3.73;;;15.20;66.40;;;;;;4877677;29;20452;-84
2022/12/26 08:52:47;;;;;;;4.13;3.10;;;15.10;66.50;;;;;;4918415;29;20478;-87
2022/12/26 08:55:16;;;;;;;4.50;3.20;;;14.90;67.40;;;;;;4892749;29;20493;-84
2022/12/26 08:57:43;;;;;;;3.07;2.70;;;15.00;67.30;;;;;;4907447;29;20966;-84
2022/12/26 09:00:11;;;;;;;5.50;3.57;;;15.10;67.10;;;;;;4888196;29;20458;-85
2022/12/26 09:02:38;;;;;;;4.83;3.57;;;15.20;67.00;;;;;;4902145;29;21425;-84
2022/12/26 09:05:06;;;;;;;7.47;4.50;;;15.20;66.70;;;;;;4915007;29;20471;-85
2022/12/26 09:07:33;;;;;;;5.77;3.50;;;15.00;67.60;;;;;;4923769;29;20463;-84
2022/12/26 09:10:00;;;;;;;5.70;4.00;;;15.00;67.80;;;;;;4882820;29;20978;-86
2022/12/26 09:12:28;;;;;;;8.30;4.20;;;15.00;67.90;;;;;;4902816;29;20471;-84
2022/12/26 09:14:55;;;;;;;3.10;2.40;;;15.10;68.20;;;;;;4916193;29;20507;-83
2022/12/26 09:17:23;;;;;;;4.93;3.23;;;14.90;68.00;;;;;;4871529;29;20460;-84
2022/12/26 09:19:50;;;;;;;7.30;3.73;;;15.10;68.10;;;;;;4916122;29;20468;-84
2022/12/26 09:25:01;;;;;;;5.40;4.37;;;15.20;68.00;;;;;;4917589;29;20463;-85
2022/12/26 09:27:30;;;;;;;7.13;4.17;;;15.10;67.80;;;;;;4892557;29;20447;-85
2022/12/26 09:29:57;;;;;;;5.40;4.17;;;15.20;67.90;;;;;;4905225;29;20455;-85
2022/12/26 09:32:24;;;;;;;6.03;4.77;;;15.00;68.80;;;;;;4888110;29;21320;-82
2022/12/26 09:34:51;;;;;;;5.07;3.80;;;15.00;68.60;;;;;;4900624;29;20879;-84
2022/12/26 09:37:17;;;;;;;5.53;4.00;;;15.00;69.00;;;;;;4899120;29;20463;-84
2022/12/26 09:39:44;;;;;;;6.47;3.43;;;15.10;68.90;;;;;;4873121;29;20884;-84
2022/12/26 09:42:23;;;;;;;5.57;4.40;;;15.00;69.20;;;;;;4904663;29;20439;-85
2022/12/26 09:45:00;;;;;;;5.63;3.20;;;14.90;69.40;;;;;;4922967;29;20458;-84
2022/12/26 09:47:32;;;;;;;5.73;3.23;;;14.90;69.50;;;;;;4906441;29;21307;-84
2022/12/26 09:50:03;;;;;;;3.10;2.63;;;14.90;69.40;;;;;;4932242;28;20451;-84
2022/12/26 09:52:38;;;;;;;4.23;2.97;;;14.70;70.50;;;;;;4905061;29;20505;-85
2022/12/26 09:55:19;;;;;;;4.40;2.63;;;14.80;70.10;;;;;;4907531;29;20553;-85
2022/12/26 09:57:50;;;;;;;3.70;2.40;;;14.90;69.80;;;;;;4919466;29;20486;-85
2022/12/26 10:00:21;;;;;;;4.23;3.50;;;14.90;69.80;;;;;;4909039;29;20538;-83
2022/12/26 10:02:52;;;;;;;4.30;2.50;;;14.90;70.10;;;;;;4909679;29;20976;-86
2022/12/26 10:05:20;;;;;;;2.87;2.67;;;14.90;70.00;;;;;;4918978;29;20466;-85
2022/12/26 10:07:53;;;;;;;3.87;2.60;;;14.90;70.00;;;;;;4875982;29;20462;-86
2022/12/26 10:10:30;;;;;;;3.20;2.40;;;14.70;70.30;;;;;;4914866;29;20958;-86
2022/12/26 10:13:08;;;;;;;3.23;2.93;;;14.70;70.30;;;;;;4890231;29;20479;-83
2022/12/26 10:15:41;;;;;;;6.43;3.40;;;14.90;70.20;;;;;;4917626;29;20567;-84
2022/12/26 10:18:20;;;;;;;4.77;3.63;;;14.80;70.20;;;;;;4914528;29;20451;-84
2022/12/26 10:21:01;;;;;;;4.00;3.60;;;15.00;70.20;;;;;;4902320;29;20458;-84
2022/12/26 10:23:32;;;;;;;3.50;3.13;;;14.90;69.80;;;;;;4931188;29;20436;-85
2022/12/26 10:26:06;;;;;;;4.23;3.30;;;15.00;69.90;;;;;;4898210;29;20845;-86
2022/12/26 10:28:39;;;;;;;3.23;2.50;;;15.10;69.40;;;;;;4875126;29;20460;-83
2022/12/26 10:31:16;;;;;;;3.67;3.07;;;14.90;69.90;;;;;;4896537;29;20972;-85
2022/12/26 10:33:48;;;;;;;5.77;5.27;;;14.90;70.10;;;;;;4931686;29;20443;-84
2022/12/26 10:36:21;;;;;;;6.87;3.50;;;15.00;69.70;;;;;;4924407;29;20490;-85
2022/12/26 10:38:52;;;;;;;2.23;1.97;;;14.90;69.80;;;;;;4908095;29;20462;-85
2022/12/26 10:41:25;;;;;;;3.10;2.37;;;14.80;70.00;;;;;;4901556;29;20770;-85
2022/12/26 10:43:52;;;;;;;2.43;2.23;;;14.70;70.30;;;;;;4904088;29;20479;-85
2022/12/26 10:46:48;;;;;;;2.90;2.67;;;15.00;69.80;;;;;;4888572;29;20474;-85
2022/12/26 10:49:19;;;;;;;2.97;2.67;;;15.00;69.80;;;;;;4930431;28;20459;-85
2022/12/26 10:51:46;;;;;;;2.47;2.20;;;15.10;69.20;;;;;;4940097;29;20482;-85
2022/12/26 10:54:17;;;;;;;4.00;2.93;;;14.90;69.00;;;;;;4880853;29;20466;-84
2022/12/26 10:56:46;;;;;;;3.83;2.60;;;14.80;69.40;;;;;;4900395;29;20483;-84
2022/12/26 10:59:17;;;;;;;4.97;4.47;;;14.80;69.50;;;;;;4881070;29;20558;-87
2022/12/26 11:01:49;;;;;;;2.67;2.47;;;14.90;69.30;;;;;;4924105;29;20439;-85
2022/12/26 11:04:19;;;;;;;6.20;2.10;;;14.70;69.30;;;;;;4894884;29;20454;-84
2022/12/26 11:06:51;;;;;;;3.50;2.50;;;14.80;69.70;;;;;;4907178;29;20487;-85
2022/12/26 11:09:41;;;;;;;2.83;2.57;;;14.80;69.40;;;;;;4927967;29;20450;-85
2022/12/26 11:12:20;;;;;;;3.57;2.93;;;14.90;69.60;;;;;;4888768;29;20480;-84
2022/12/26 11:14:47;;;;;;;1.90;1.80;;;14.90;68.70;;;;;;4925056;29;20454;-85
2022/12/26 11:17:25;;;;;;;4.57;4.00;;;14.70;68.90;;;;;;4876595;29;20458;-84
2022/12/26 11:20:24;;;;;;;10.27;6.50;;;15.10;68.60;;;;;;4896639;29;20493;-85
2022/12/26 11:22:51;;;;;;;4.30;3.50;;;15.40;67.50;;;;;;4905212;29;20817;-85
2022/12/26 11:25:21;;;;;;;3.30;2.40;;;15.60;66.70;;;;;;4902006;29;20479;-85
2022/12/26 11:27:50;;;;;;;3.87;3.53;;;15.50;66.50;;;;;;4931524;29;21003;-85
2022/12/26 11:30:24;;;;;;;2.40;2.00;;;15.60;65.70;;;;;;4932963;29;20811;-84
2022/12/26 11:33:13;;;;;;;4.03;2.23;;;15.30;66.40;;;;;;4899770;29;20839;-85
2022/12/26 11:35:48;;;;;;;5.27;2.87;;;15.20;66.00;;;;;;4917346;29;20558;-84
2022/12/26 11:38:33;;;;;;;2.77;2.50;;;15.30;66.30;;;;;;4892570;29;20956;-84
2022/12/26 11:43:49;;;;;;;1.87;1.67;;;15.10;66.50;;;;;;4916306;29;20523;-86
2022/12/26 11:46:16;;;;;;;8.90;6.10;;;15.00;67.80;;;;;;4918123;29;20479;-85
2022/12/26 11:48:49;;;;;;;2.07;1.87;;;15.10;66.80;;;;;;4899701;29;20455;-85
2022/12/26 11:51:30;;;;;;;2.47;2.27;;;14.90;66.80;;;;;;4892608;29;20513;-85
2022/12/26 11:54:17;;;;;;;4.10;2.13;;;14.90;67.30;;;;;;4876914;29;20889;-85
2022/12/26 11:56:44;;;;;;;4.73;2.10;;;15.10;66.80;;;;;;4876362;29;20481;-86
2022/12/26 11:59:18;;;;;;;4.03;2.80;;;15.00;67.70;;;;;;4905362;29;20458;-85
2022/12/26 12:01:45;;;;;;;3.20;2.50;;;15.00;67.60;;;;;;4900931;29;20456;-85
2022/12/26 12:04:16;;;;;;;1.93;1.73;;;15.10;66.30;;;;;;4904334;29;20467;-85
2022/12/26 12:07:00;;;;;;;36.00;17.20;;;15.10;66.70;;;;;;4914554;29;21080;-86
2022/12/26 12:09:37;;;;;;;15.10;7.73;;;15.10;65.90;;;;;;4928994;28;20472;-87
2022/12/26 12:12:13;;;;;;;4.10;2.50;;;15.10;66.70;;;;;;4900611;29;20479;-83
2022/12/26 12:14:52;;;;;;;9.77;6.47;;;15.00;66.00;;;;;;4926024;29;21010;-84
2022/12/26 12:17:26;;;;;;;7.57;4.90;;;15.10;66.30;;;;;;4905225;29;20904;-85
2022/12/26 12:20:17;;;;;;;16.00;8.53;;;14.80;66.40;;;;;;4896371;29;21001;-85
2022/12/26 12:23:06;;;;;;;15.37;6.77;;;14.80;67.50;;;;;;4898167;29;21095;-84
2022/12/26 12:25:54;;;;;;;8.30;5.53;;;14.70;67.80;;;;;;4919400;29;20985;-81
2022/12/26 12:28:42;;;;;;;7.43;4.00;;;14.80;66.80;;;;;;4899150;29;20443;-83
2022/12/26 12:31:19;;;;;;;7.00;5.20;;;14.80;66.90;;;;;;4891087;29;20455;-84
2022/12/26 12:33:52;;;;;;;8.80;6.67;;;14.90;67.50;;;;;;4900120;29;20471;-84
2022/12/26 12:36:28;;;;;;;14.07;11.67;;;14.80;66.90;;;;;;4932367;28;20997;-83
2022/12/26 12:39:02;;;;;;;9.67;5.77;;;14.90;67.60;;;;;;4914029;29;20475;-83
2022/12/26 12:41:55;;;;;;;4.27;3.50;;;15.20;66.40;;;;;;4872621;29;20451;-84
2022/12/26 12:44:29;;;;;;;5.87;3.00;;;15.20;65.30;;;;;;4913691;29;20459;-83
2022/12/26 12:47:07;;;;;;;3.87;3.57;;;15.20;66.10;;;;;;4905181;29;20490;-83
2022/12/26 12:49:48;;;;;;;3.70;2.13;;;15.10;66.30;;;;;;4907151;29;20459;-85
2022/12/26 12:52:31;;;;;;;4.37;2.83;;;15.10;66.20;;;;;;4895421;29;20483;-86
2022/12/26 12:55:22;;;;;;;2.90;2.63;;;15.30;65.40;;;;;;4876295;29;20853;-84
2022/12/26 12:57:53;;;;;;;4.20;3.43;;;15.20;65.80;;;;;;4920045;29;20493;-85
2022/12/26 13:00:23;;;;;;;4.67;3.33;;;15.20;65.60;;;;;;4882041;29;20459;-83
2022/12/26 13:02:55;;;;;;;2.90;2.30;;;15.20;66.10;;;;;;4899132;29;20503;-83
2022/12/26 13:05:36;;;;;;;2.33;2.13;;;15.40;65.60;;;;;;4900012;29;20476;-84
2022/12/26 13:08:10;;;;;;;6.30;2.20;;;15.30;65.60;;;;;;4911586;29;21393;-85
2022/12/26 13:10:43;;;;;;;2.30;2.10;;;15.00;66.40;;;;;;4914960;29;20460;-84
2022/12/26 13:13:19;;;;;;;3.43;3.20;;;15.20;66.20;;;;;;4872828;29;20479;-83
2022/12/26 13:15:49;;;;;;;2.30;2.10;;;15.30;65.70;;;;;;4902703;29;20993;-82
2022/12/26 13:18:19;;;;;;;3.43;3.13;;;15.30;65.70;;;;;;4868552;29;20808;-85
2022/12/26 13:20:49;;;;;;;2.87;2.40;;;15.40;65.70;;;;;;4897524;29;20587;-82
2022/12/26 13:26:15;;;;;;;2.13;1.60;;;15.30;66.30;;;;;;4919428;29;20478;-84
2022/12/26 13:28:55;;;;;;;4.83;4.43;;;15.20;66.60;;;;;;4912852;29;20510;-84
2022/12/26 13:31:22;;;;;;;4.47;3.47;;;15.40;66.70;;;;;;4898463;29;20915;-84
2022/12/26 13:33:49;;;;;;;3.27;2.70;;;15.40;66.10;;;;;;4897460;29;20484;-84
2022/12/26 13:36:36;;;;;;;4.50;4.07;;;15.30;66.10;;;;;;4926891;28;21103;-83
2022/12/26 13:39:30;;;;;;;2.50;2.30;;;15.30;66.40;;;;;;4923259;29;20466;-84
2022/12/26 13:44:49;;;;;;;2.90;2.17;;;15.10;66.90;;;;;;4927161;29;20460;-84
2022/12/26 13:47:34;;;;;;;4.13;2.70;;;15.10;66.00;;;;;;4882094;29;20440;-83
2022/12/26 13:50:34;;;;;;;3.53;3.20;;;15.00;66.60;;;;;;4902789;29;20872;-83
2022/12/26 13:53:01;;;;;;;3.03;2.40;;;15.20;66.00;;;;;;4883314;29;20984;-83
2022/12/26 13:55:42;;;;;;;15.77;7.07;;;15.00;66.10;;;;;;4877150;29;20482;-84
2022/12/26 13:58:26;;;;;;;69.77;29.70;;;14.90;66.40;;;;;;4905857;29;21036;-84
2022/12/26 14:00:58;;;;;;;11.50;7.87;;;14.90;66.30;;;;;;4875280;29;20456;-84
2022/12/26 14:03:40;;;;;;;4.73;2.70;;;15.10;65.90;;;;;;4890450;29;20456;-85
2022/12/26 14:06:35;;;;;;;31.33;15.03;;;15.30;65.70;;;;;;4889188;29;20485;-85
2022/12/26 14:09:16;;;;;;;24.20;12.53;;;15.40;65.30;;;;;;4915008;29;20460;-84
2022/12/26 14:12:00;;;;;;;12.47;6.37;;;15.50;64.80;;;;;;4899813;29;20451;-84
2022/12/26 14:14:41;;;;;;;5.67;4.10;;;15.60;64.60;;;;;;4929076;28;20590;-82
2022/12/26 14:17:19;;;;;;;4.33;3.83;;;15.30;64.90;;;;;;4900257;29;20467;-84
2022/12/26 14:19:57;;;;;;;2.20;2.00;;;15.20;65.40;;;;;;4900271;29;20486;-84
2022/12/26 14:22:35;;;;;;;2.27;1.73;;;15.10;66.10;;;;;;4923800;29;20534;-85
2022/12/26 14:25:12;;;;;;;5.07;3.50;;;14.90;65.60;;;;;;4884398;29;20490;-85
2022/12/26 14:27:47;;;;;;;4.80;2.30;;;15.10;65.90;;;;;;4924462;29;20807;-83
2022/12/26 14:30:22;;;;;;;14.87;8.37;;;15.40;65.40;;;;;;4899262;29;20460;-83
2022/12/26 14:33:02;;;;;;;5.77;4.60;;;15.30;65.00;;;;;;4898834;29;20475;-85
2022/12/26 14:35:35;;;;;;;17.80;10.10;;;15.40;64.50;;;;;;4897123;29;20554;-85
2022/12/26 14:38:19;;;;;;;3.73;2.80;;;15.50;64.20;;;;;;4889485;29;20469;-84
2022/12/26 14:40:59;;;;;;;4.30;3.90;;;15.50;63.90;;;;;;4909179;29;20455;-83
2022/12/26 14:43:34;;;;;;;6.47;3.53;;;15.30;64.10;;;;;;4933669;28;20451;-82
2022/12/26 14:46:04;;;;;;;2.80;2.30;;;15.20;64.60;;;;;;4932455;28;20537;-85
2022/12/26 14:48:53;;;;;;;9.37;5.27;;;15.00;64.80;;;;;;4901589;29;20515;-84
2022/12/26 14:51:38;;;;;;;14.77;7.80;;;14.90;65.20;;;;;;4918730;29;20455;-84
2022/12/26 14:54:35;;;;;;;12.83;7.80;;;14.90;65.20;;;;;;4903162;29;20554;-83
2022/12/26 14:57:45;;;;;;;6.17;3.23;;;15.00;65.20;;;;;;4893306;29;20475;-86
2022/12/26 15:00:27;;;;;;;3.43;2.13;;;14.80;65.00;;;;;;4893899;29;20463;-83
2022/12/26 15:03:28;;;;;;;3.73;3.33;;;14.90;65.00;;;;;;4898906;29;20446;-84
2022/12/26 15:06:13;;;;;;;3.50;2.60;;;15.10;64.10;;;;;;4923113;28;20467;-84
2022/12/26 15:08:57;;;;;;;3.53;2.83;;;15.10;63.60;;;;;;4900847;29;20459;-84
2022/12/26 15:11:54;;;;;;;2.80;2.60;;;15.10;64.90;;;;;;4907055;29;20466;-84
2022/12/26 15:15:04;;;;;;;3.07;2.80;;;15.00;64.10;;;;;;4882312;29;21201;-81
2022/12/26 15:17:42;;;;;;;5.63;3.07;;;15.20;63.80;;;;;;4883964;29;20456;-82
2022/12/26 15:20:48;;;;;;;5.10;4.20;;;15.20;63.50;;;;;;4879386;29;21162;-84
2022/12/26 15:23:42;;;;;;;5.00;4.13;;;15.10;63.90;;;;;;4879702;29;20463;-85
2022/12/26 15:26:40;;;;;;;3.40;2.30;;;15.00;65.20;;;;;;4931318;28;20770;-84
2022/12/26 15:29:37;;;;;;;4.10;3.00;;;15.10;64.90;;;;;;4919893;29;21028;-84
2022/12/26 15:32:12;;;;;;;3.17;2.73;;;15.20;65.00;;;;;;4933510;28;21549;-84
2022/12/26 15:34:53;;;;;;;3.03;2.77;;;15.40;64.50;;;;;;4904536;29;20589;-84